sensor_id;sensor_type;location;lat;lon;timestamp;P1;durP1;ratioP1;P2;durP2;ratioP2
11747;SDS011;5931;48.832;9.072;2023-04-25T00:01:00;1.80;;;1.53;;
11747;SDS011;5931;48.832;9.072;2023-04-25T00:03:27;8.83;;;1.83;;
11747;SDS011;5931;48.832;9.072;2023-04-25T00:05:54;1.83;;;1.60;;
11747;SDS011;5931;48.832;9.072;2023-04-25T00:08:21;3.50;;;1.73;;
11747;SDS011;5931;48.832;9.072;2023-04-25T00:10:47;1.47;;;1.30;;
11747;SDS011;5931;48.832;9.072;2023-04-25T00:13:14;1.90;;;1.50;;
11747;SDS011;5931;48.832;9.072;2023-04-25T00:15:40;2.03;;;1.60;;
11747;SDS011;5931;48.832;9.072;2023-04-25T00:18:06;1.80;;;1.60;;
11747;SDS011;5931;48.832;9.072;2023-04-25T00:20:32;1.80;;;1.50;;
11747;SDS011;5931;48.832;9.072;2023-04-25T00:22:58;4.60;;;1.67;;
11747;SDS011;5931;48.832;9.072;2023-04-25T00:25:24;2.50;;;1.83;;
11747;SDS011;5931;48.832;9.072;2023-04-25T00:27:49;2.70;;;1.90;;
11747;SDS011;5931;48.832;9.072;2023-04-25T00:30:15;1.93;;;1.73;;
11747;SDS011;5931;48.832;9.072;2023-04-25T00:32:41;1.57;;;1.47;;
11747;SDS011;5931;48.832;9.072;2023-04-25T00:35:06;1.93;;;1.50;;
11747;SDS011;5931;48.832;9.072;2023-04-25T00:37:32;4.70;;;1.50;;
11747;SDS011;5931;48.832;9.072;2023-04-25T00:39:58;1.47;;;1.37;;
11747;SDS011;5931;48.832;9.072;2023-04-25T00:42:24;2.63;;;1.73;;
11747;SDS011;5931;48.832;9.072;2023-04-25T00:44:51;6.70;;;2.23;;
11747;SDS011;5931;48.832;9.072;2023-04-25T00:47:18;1.93;;;1.53;;
11747;SDS011;5931;48.832;9.072;2023-04-25T00:49:43;2.30;;;1.93;;
11747;SDS011;5931;48.832;9.072;2023-04-25T00:52:11;2.10;;;1.90;;
11747;SDS011;5931;48.832;9.072;2023-04-25T00:54:37;2.73;;;1.70;;
11747;SDS011;5931;48.832;9.072;2023-04-25T00:57:03;2.80;;;2.23;;
11747;SDS011;5931;48.832;9.072;2023-04-25T00:59:29;2.23;;;1.90;;
11747;SDS011;5931;48.832;9.072;2023-04-25T01:01:55;3.60;;;2.50;;
11747;SDS011;5931;48.832;9.072;2023-04-25T01:04:21;1.70;;;1.60;;
11747;SDS011;5931;48.832;9.072;2023-04-25T01:06:47;3.40;;;1.90;;
11747;SDS011;5931;48.832;9.072;2023-04-25T01:09:13;3.70;;;1.80;;
11747;SDS011;5931;48.832;9.072;2023-04-25T01:11:40;3.93;;;2.00;;
11747;SDS011;5931;48.832;9.072;2023-04-25T01:14:05;2.53;;;2.00;;
11747;SDS011;5931;48.832;9.072;2023-04-25T01:16:31;2.87;;;2.37;;
11747;SDS011;5931;48.832;9.072;2023-04-25T01:18:58;4.53;;;2.10;;
11747;SDS011;5931;48.832;9.072;2023-04-25T01:21:24;2.27;;;2.07;;
11747;SDS011;5931;48.832;9.072;2023-04-25T01:23:52;4.50;;;2.07;;
11747;SDS011;5931;48.832;9.072;2023-04-25T01:26:19;2.10;;;1.90;;
11747;SDS011;5931;48.832;9.072;2023-04-25T01:28:46;6.17;;;2.40;;
11747;SDS011;5931;48.832;9.072;2023-04-25T01:31:13;3.70;;;1.93;;
11747;SDS011;5931;48.832;9.072;2023-04-25T01:33:40;2.37;;;2.00;;
11747;SDS011;5931;48.832;9.072;2023-04-25T01:36:05;2.57;;;1.90;;
11747;SDS011;5931;48.832;9.072;2023-04-25T01:38:33;3.00;;;2.23;;
11747;SDS011;5931;48.832;9.072;2023-04-25T01:41:00;5.17;;;2.80;;
11747;SDS011;5931;48.832;9.072;2023-04-25T01:43:26;4.30;;;2.60;;
11747;SDS011;5931;48.832;9.072;2023-04-25T01:45:52;4.17;;;2.73;;
11747;SDS011;5931;48.832;9.072;2023-04-25T01:48:18;4.40;;;2.70;;
11747;SDS011;5931;48.832;9.072;2023-04-25T01:50:45;4.30;;;2.83;;
11747;SDS011;5931;48.832;9.072;2023-04-25T01:53:11;4.57;;;2.57;;
11747;SDS011;5931;48.832;9.072;2023-04-25T01:55:40;2.73;;;2.33;;
11747;SDS011;5931;48.832;9.072;2023-04-25T01:58:12;4.30;;;2.57;;
11747;SDS011;5931;48.832;9.072;2023-04-25T02:00:56;3.87;;;2.60;;
11747;SDS011;5931;48.832;9.072;2023-04-25T02:03:25;3.57;;;2.57;;
11747;SDS011;5931;48.832;9.072;2023-04-25T02:05:51;3.67;;;2.60;;
11747;SDS011;5931;48.832;9.072;2023-04-25T02:08:17;4.13;;;2.80;;
11747;SDS011;5931;48.832;9.072;2023-04-25T02:10:43;3.97;;;2.67;;
11747;SDS011;5931;48.832;9.072;2023-04-25T02:13:14;3.93;;;2.30;;
11747;SDS011;5931;48.832;9.072;2023-04-25T02:15:48;3.00;;;2.10;;
11747;SDS011;5931;48.832;9.072;2023-04-25T02:18:15;2.63;;;2.43;;
11747;SDS011;5931;48.832;9.072;2023-04-25T02:20:41;4.00;;;2.50;;
11747;SDS011;5931;48.832;9.072;2023-04-25T02:23:08;2.93;;;2.23;;
11747;SDS011;5931;48.832;9.072;2023-04-25T02:25:33;2.30;;;2.07;;
11747;SDS011;5931;48.832;9.072;2023-04-25T02:27:59;3.37;;;2.60;;
11747;SDS011;5931;48.832;9.072;2023-04-25T02:30:25;3.93;;;2.17;;
11747;SDS011;5931;48.832;9.072;2023-04-25T02:32:50;3.93;;;2.67;;
11747;SDS011;5931;48.832;9.072;2023-04-25T02:35:16;3.27;;;2.33;;
11747;SDS011;5931;48.832;9.072;2023-04-25T02:37:42;3.43;;;2.43;;
11747;SDS011;5931;48.832;9.072;2023-04-25T02:40:08;5.60;;;2.47;;
11747;SDS011;5931;48.832;9.072;2023-04-25T02:42:34;2.10;;;1.80;;
11747;SDS011;5931;48.832;9.072;2023-04-25T02:45:00;3.17;;;2.60;;
11747;SDS011;5931;48.832;9.072;2023-04-25T02:47:27;3.60;;;2.37;;
11747;SDS011;5931;48.832;9.072;2023-04-25T02:49:53;8.13;;;3.00;;
11747;SDS011;5931;48.832;9.072;2023-04-25T02:52:19;3.40;;;2.70;;
11747;SDS011;5931;48.832;9.072;2023-04-25T02:54:51;5.70;;;2.57;;
11747;SDS011;5931;48.832;9.072;2023-04-25T02:57:17;3.50;;;2.23;;
11747;SDS011;5931;48.832;9.072;2023-04-25T02:59:43;2.80;;;2.57;;
11747;SDS011;5931;48.832;9.072;2023-04-25T03:02:09;3.43;;;2.53;;
11747;SDS011;5931;48.832;9.072;2023-04-25T03:04:34;3.40;;;2.30;;
11747;SDS011;5931;48.832;9.072;2023-04-25T03:07:00;3.57;;;2.73;;
11747;SDS011;5931;48.832;9.072;2023-04-25T03:09:26;3.70;;;2.30;;
11747;SDS011;5931;48.832;9.072;2023-04-25T03:11:52;8.73;;;2.80;;
11747;SDS011;5931;48.832;9.072;2023-04-25T03:14:18;4.10;;;2.60;;
11747;SDS011;5931;48.832;9.072;2023-04-25T03:16:44;4.23;;;2.87;;
11747;SDS011;5931;48.832;9.072;2023-04-25T03:19:10;5.13;;;2.87;;
11747;SDS011;5931;48.832;9.072;2023-04-25T03:21:36;4.80;;;3.10;;
11747;SDS011;5931;48.832;9.072;2023-04-25T03:24:03;4.50;;;3.20;;
11747;SDS011;5931;48.832;9.072;2023-04-25T03:26:29;4.43;;;3.20;;
11747;SDS011;5931;48.832;9.072;2023-04-25T03:28:55;3.30;;;2.90;;
11747;SDS011;5931;48.832;9.072;2023-04-25T03:31:21;3.53;;;3.23;;
11747;SDS011;5931;48.832;9.072;2023-04-25T03:33:47;5.53;;;2.90;;
11747;SDS011;5931;48.832;9.072;2023-04-25T03:36:13;3.40;;;2.93;;
11747;SDS011;5931;48.832;9.072;2023-04-25T03:38:39;3.90;;;2.90;;
11747;SDS011;5931;48.832;9.072;2023-04-25T03:41:07;4.17;;;2.40;;
11747;SDS011;5931;48.832;9.072;2023-04-25T03:43:54;4.63;;;2.73;;
11747;SDS011;5931;48.832;9.072;2023-04-25T03:46:20;4.73;;;2.80;;
11747;SDS011;5931;48.832;9.072;2023-04-25T03:48:46;4.00;;;2.90;;
11747;SDS011;5931;48.832;9.072;2023-04-25T03:51:18;6.80;;;3.43;;
11747;SDS011;5931;48.832;9.072;2023-04-25T03:53:44;3.27;;;2.67;;
11747;SDS011;5931;48.832;9.072;2023-04-25T03:56:18;3.37;;;2.87;;
11747;SDS011;5931;48.832;9.072;2023-04-25T03:58:47;2.80;;;2.23;;
11747;SDS011;5931;48.832;9.072;2023-04-25T04:01:15;3.87;;;2.63;;
11747;SDS011;5931;48.832;9.072;2023-04-25T04:03:41;3.10;;;2.73;;
11747;SDS011;5931;48.832;9.072;2023-04-25T04:06:07;3.23;;;2.73;;
11747;SDS011;5931;48.832;9.072;2023-04-25T04:08:44;4.40;;;2.60;;
11747;SDS011;5931;48.832;9.072;2023-04-25T04:11:10;2.87;;;2.60;;
11747;SDS011;5931;48.832;9.072;2023-04-25T04:13:36;4.20;;;2.50;;
11747;SDS011;5931;48.832;9.072;2023-04-25T04:16:02;4.90;;;2.90;;
11747;SDS011;5931;48.832;9.072;2023-04-25T04:18:29;4.60;;;2.53;;
11747;SDS011;5931;48.832;9.072;2023-04-25T04:20:56;4.37;;;3.20;;
11747;SDS011;5931;48.832;9.072;2023-04-25T04:23:23;3.70;;;3.20;;
11747;SDS011;5931;48.832;9.072;2023-04-25T04:25:50;3.47;;;2.33;;
11747;SDS011;5931;48.832;9.072;2023-04-25T04:28:34;4.63;;;3.10;;
11747;SDS011;5931;48.832;9.072;2023-04-25T04:31:29;4.53;;;3.07;;
11747;SDS011;5931;48.832;9.072;2023-04-25T04:33:55;5.37;;;2.97;;
11747;SDS011;5931;48.832;9.072;2023-04-25T04:36:21;8.90;;;3.20;;
11747;SDS011;5931;48.832;9.072;2023-04-25T04:38:48;7.87;;;3.47;;
11747;SDS011;5931;48.832;9.072;2023-04-25T04:41:24;4.00;;;3.40;;
11747;SDS011;5931;48.832;9.072;2023-04-25T04:44:05;4.60;;;2.60;;
11747;SDS011;5931;48.832;9.072;2023-04-25T04:46:40;4.43;;;3.23;;
11747;SDS011;5931;48.832;9.072;2023-04-25T04:49:27;4.80;;;3.10;;
11747;SDS011;5931;48.832;9.072;2023-04-25T04:52:07;5.80;;;3.93;;
11747;SDS011;5931;48.832;9.072;2023-04-25T04:54:53;4.93;;;3.13;;
11747;SDS011;5931;48.832;9.072;2023-04-25T04:57:41;3.40;;;3.00;;
11747;SDS011;5931;48.832;9.072;2023-04-25T05:00:29;4.00;;;3.00;;
11747;SDS011;5931;48.832;9.072;2023-04-25T05:03:25;4.57;;;3.30;;
11747;SDS011;5931;48.832;9.072;2023-04-25T05:06:16;4.47;;;3.33;;
11747;SDS011;5931;48.832;9.072;2023-04-25T05:09:14;6.03;;;3.13;;
11747;SDS011;5931;48.832;9.072;2023-04-25T05:12:03;7.67;;;4.50;;
11747;SDS011;5931;48.832;9.072;2023-04-25T05:14:46;5.57;;;3.50;;
11747;SDS011;5931;48.832;9.072;2023-04-25T05:17:29;8.77;;;3.20;;
11747;SDS011;5931;48.832;9.072;2023-04-25T05:20:18;5.23;;;3.53;;
11747;SDS011;5931;48.832;9.072;2023-04-25T05:22:53;5.23;;;3.20;;
11747;SDS011;5931;48.832;9.072;2023-04-25T05:25:40;6.73;;;3.27;;
11747;SDS011;5931;48.832;9.072;2023-04-25T05:28:28;4.10;;;3.20;;
11747;SDS011;5931;48.832;9.072;2023-04-25T05:31:14;4.20;;;3.20;;
11747;SDS011;5931;48.832;9.072;2023-04-25T05:33:47;4.50;;;3.20;;
11747;SDS011;5931;48.832;9.072;2023-04-25T05:36:13;3.67;;;2.90;;
11747;SDS011;5931;48.832;9.072;2023-04-25T05:38:39;5.80;;;3.43;;
11747;SDS011;5931;48.832;9.072;2023-04-25T05:41:13;4.90;;;3.27;;
11747;SDS011;5931;48.832;9.072;2023-04-25T05:44:00;7.27;;;3.30;;
11747;SDS011;5931;48.832;9.072;2023-04-25T05:46:47;4.07;;;3.07;;
11747;SDS011;5931;48.832;9.072;2023-04-25T05:49:42;4.07;;;3.07;;
11747;SDS011;5931;48.832;9.072;2023-04-25T05:52:36;6.40;;;3.83;;
11747;SDS011;5931;48.832;9.072;2023-04-25T05:55:09;3.67;;;3.00;;
11747;SDS011;5931;48.832;9.072;2023-04-25T05:57:35;4.90;;;3.50;;
11747;SDS011;5931;48.832;9.072;2023-04-25T06:00:01;4.73;;;3.40;;
11747;SDS011;5931;48.832;9.072;2023-04-25T06:02:45;4.70;;;3.57;;
11747;SDS011;5931;48.832;9.072;2023-04-25T06:05:13;6.50;;;3.37;;
11747;SDS011;5931;48.832;9.072;2023-04-25T06:07:39;4.97;;;3.00;;
11747;SDS011;5931;48.832;9.072;2023-04-25T06:10:05;6.07;;;3.00;;
11747;SDS011;5931;48.832;9.072;2023-04-25T06:12:34;4.90;;;3.13;;
11747;SDS011;5931;48.832;9.072;2023-04-25T06:15:02;4.33;;;3.53;;
11747;SDS011;5931;48.832;9.072;2023-04-25T06:17:30;9.87;;;5.50;;
11747;SDS011;5931;48.832;9.072;2023-04-25T06:19:55;8.90;;;5.20;;
11747;SDS011;5931;48.832;9.072;2023-04-25T06:22:21;6.97;;;3.90;;
11747;SDS011;5931;48.832;9.072;2023-04-25T06:24:47;6.00;;;3.93;;
11747;SDS011;5931;48.832;9.072;2023-04-25T06:27:12;5.37;;;3.10;;
11747;SDS011;5931;48.832;9.072;2023-04-25T06:29:38;5.43;;;3.47;;
11747;SDS011;5931;48.832;9.072;2023-04-25T06:32:04;3.77;;;2.80;;
11747;SDS011;5931;48.832;9.072;2023-04-25T06:34:30;3.67;;;3.20;;
11747;SDS011;5931;48.832;9.072;2023-04-25T06:36:56;4.47;;;3.20;;
11747;SDS011;5931;48.832;9.072;2023-04-25T06:39:21;6.57;;;3.10;;
11747;SDS011;5931;48.832;9.072;2023-04-25T06:41:48;6.27;;;3.57;;
11747;SDS011;5931;48.832;9.072;2023-04-25T06:44:34;5.30;;;3.90;;
11747;SDS011;5931;48.832;9.072;2023-04-25T06:47:01;5.10;;;3.63;;
11747;SDS011;5931;48.832;9.072;2023-04-25T06:49:26;3.60;;;2.70;;
11747;SDS011;5931;48.832;9.072;2023-04-25T06:51:52;4.27;;;3.13;;
11747;SDS011;5931;48.832;9.072;2023-04-25T06:54:18;4.30;;;2.80;;
11747;SDS011;5931;48.832;9.072;2023-04-25T06:56:53;4.60;;;3.10;;
11747;SDS011;5931;48.832;9.072;2023-04-25T06:59:20;7.63;;;3.13;;
11747;SDS011;5931;48.832;9.072;2023-04-25T07:01:45;5.73;;;3.20;;
11747;SDS011;5931;48.832;9.072;2023-04-25T07:04:17;7.07;;;2.70;;
11747;SDS011;5931;48.832;9.072;2023-04-25T07:06:48;3.30;;;2.47;;
11747;SDS011;5931;48.832;9.072;2023-04-25T07:09:16;4.60;;;3.17;;
11747;SDS011;5931;48.832;9.072;2023-04-25T07:11:45;3.73;;;3.13;;
11747;SDS011;5931;48.832;9.072;2023-04-25T07:14:11;5.20;;;3.20;;
11747;SDS011;5931;48.832;9.072;2023-04-25T07:16:36;3.63;;;2.50;;
11747;SDS011;5931;48.832;9.072;2023-04-25T07:19:02;4.77;;;3.40;;
11747;SDS011;5931;48.832;9.072;2023-04-25T07:21:28;3.43;;;2.70;;
11747;SDS011;5931;48.832;9.072;2023-04-25T07:23:56;3.60;;;2.90;;
11747;SDS011;5931;48.832;9.072;2023-04-25T07:26:28;4.27;;;2.77;;
11747;SDS011;5931;48.832;9.072;2023-04-25T07:29:13;4.20;;;3.37;;
11747;SDS011;5931;48.832;9.072;2023-04-25T07:31:39;6.10;;;3.53;;
11747;SDS011;5931;48.832;9.072;2023-04-25T07:34:05;6.40;;;3.10;;
11747;SDS011;5931;48.832;9.072;2023-04-25T07:36:31;5.53;;;4.27;;
11747;SDS011;5931;48.832;9.072;2023-04-25T07:38:56;6.60;;;3.63;;
11747;SDS011;5931;48.832;9.072;2023-04-25T07:41:22;4.37;;;3.70;;
11747;SDS011;5931;48.832;9.072;2023-04-25T07:43:48;4.77;;;3.03;;
11747;SDS011;5931;48.832;9.072;2023-04-25T07:46:13;5.00;;;3.03;;
11747;SDS011;5931;48.832;9.072;2023-04-25T07:48:39;5.97;;;3.30;;
11747;SDS011;5931;48.832;9.072;2023-04-25T07:51:05;5.63;;;4.07;;
11747;SDS011;5931;48.832;9.072;2023-04-25T07:53:34;5.50;;;3.87;;
11747;SDS011;5931;48.832;9.072;2023-04-25T07:56:04;4.53;;;3.10;;
11747;SDS011;5931;48.832;9.072;2023-04-25T07:58:33;4.73;;;3.03;;
11747;SDS011;5931;48.832;9.072;2023-04-25T08:01:01;3.70;;;3.13;;
11747;SDS011;5931;48.832;9.072;2023-04-25T08:03:41;5.60;;;3.70;;
11747;SDS011;5931;48.832;9.072;2023-04-25T08:06:13;4.23;;;2.77;;
11747;SDS011;5931;48.832;9.072;2023-04-25T08:08:49;5.30;;;3.37;;
11747;SDS011;5931;48.832;9.072;2023-04-25T08:11:18;5.77;;;4.20;;
11747;SDS011;5931;48.832;9.072;2023-04-25T08:13:44;4.87;;;3.97;;
11747;SDS011;5931;48.832;9.072;2023-04-25T08:16:10;4.00;;;3.17;;
11747;SDS011;5931;48.832;9.072;2023-04-25T08:18:36;4.27;;;3.13;;
11747;SDS011;5931;48.832;9.072;2023-04-25T08:21:02;4.53;;;3.50;;
11747;SDS011;5931;48.832;9.072;2023-04-25T08:23:28;4.13;;;3.20;;
11747;SDS011;5931;48.832;9.072;2023-04-25T08:26:10;4.37;;;3.70;;
11747;SDS011;5931;48.832;9.072;2023-04-25T08:28:37;3.90;;;2.97;;
11747;SDS011;5931;48.832;9.072;2023-04-25T08:31:03;5.13;;;4.00;;
11747;SDS011;5931;48.832;9.072;2023-04-25T08:33:37;5.07;;;3.67;;
11747;SDS011;5931;48.832;9.072;2023-04-25T08:36:12;5.63;;;3.97;;
11747;SDS011;5931;48.832;9.072;2023-04-25T08:38:38;3.77;;;2.70;;
11747;SDS011;5931;48.832;9.072;2023-04-25T08:41:07;4.10;;;3.20;;
11747;SDS011;5931;48.832;9.072;2023-04-25T08:43:33;4.50;;;3.10;;
11747;SDS011;5931;48.832;9.072;2023-04-25T08:46:00;6.63;;;3.80;;
11747;SDS011;5931;48.832;9.072;2023-04-25T08:48:39;4.80;;;3.27;;
11747;SDS011;5931;48.832;9.072;2023-04-25T08:51:06;4.70;;;3.73;;
11747;SDS011;5931;48.832;9.072;2023-04-25T08:53:33;4.47;;;2.80;;
11747;SDS011;5931;48.832;9.072;2023-04-25T08:56:01;3.47;;;3.10;;
11747;SDS011;5931;48.832;9.072;2023-04-25T08:58:28;6.00;;;3.40;;
11747;SDS011;5931;48.832;9.072;2023-04-25T09:00:54;5.53;;;3.47;;
11747;SDS011;5931;48.832;9.072;2023-04-25T09:03:23;5.13;;;3.43;;
11747;SDS011;5931;48.832;9.072;2023-04-25T09:05:50;5.03;;;3.40;;
11747;SDS011;5931;48.832;9.072;2023-04-25T09:08:16;5.10;;;3.50;;
11747;SDS011;5931;48.832;9.072;2023-04-25T09:10:42;5.00;;;3.67;;
11747;SDS011;5931;48.832;9.072;2023-04-25T09:13:09;5.73;;;4.40;;
11747;SDS011;5931;48.832;9.072;2023-04-25T09:15:57;4.47;;;3.63;;
11747;SDS011;5931;48.832;9.072;2023-04-25T09:18:36;2.87;;;2.57;;
11747;SDS011;5931;48.832;9.072;2023-04-25T09:21:06;4.43;;;3.30;;
11747;SDS011;5931;48.832;9.072;2023-04-25T09:23:48;4.27;;;3.43;;
11747;SDS011;5931;48.832;9.072;2023-04-25T09:26:16;4.70;;;3.57;;
11747;SDS011;5931;48.832;9.072;2023-04-25T09:28:44;3.00;;;2.70;;
11747;SDS011;5931;48.832;9.072;2023-04-25T09:31:23;5.00;;;3.07;;
11747;SDS011;5931;48.832;9.072;2023-04-25T09:33:58;4.63;;;3.60;;
11747;SDS011;5931;48.832;9.072;2023-04-25T09:36:29;4.87;;;2.87;;
11747;SDS011;5931;48.832;9.072;2023-04-25T09:39:16;5.40;;;3.43;;
11747;SDS011;5931;48.832;9.072;2023-04-25T09:41:53;9.40;;;5.10;;
11747;SDS011;5931;48.832;9.072;2023-04-25T09:44:22;8.53;;;3.50;;
11747;SDS011;5931;48.832;9.072;2023-04-25T09:46:49;2.73;;;2.53;;
11747;SDS011;5931;48.832;9.072;2023-04-25T09:49:20;3.60;;;2.53;;
11747;SDS011;5931;48.832;9.072;2023-04-25T09:51:56;2.57;;;2.07;;
11747;SDS011;5931;48.832;9.072;2023-04-25T09:54:25;3.43;;;2.00;;
11747;SDS011;5931;48.832;9.072;2023-04-25T09:57:22;2.40;;;1.80;;
11747;SDS011;5931;48.832;9.072;2023-04-25T09:59:54;3.20;;;2.23;;
11747;SDS011;5931;48.832;9.072;2023-04-25T10:02:22;2.10;;;1.90;;
11747;SDS011;5931;48.832;9.072;2023-04-25T10:04:53;3.47;;;1.77;;
11747;SDS011;5931;48.832;9.072;2023-04-25T10:07:25;2.73;;;1.83;;
11747;SDS011;5931;48.832;9.072;2023-04-25T10:10:03;1.90;;;1.50;;
11747;SDS011;5931;48.832;9.072;2023-04-25T10:12:31;2.10;;;1.70;;
11747;SDS011;5931;48.832;9.072;2023-04-25T10:14:58;2.53;;;2.20;;
11747;SDS011;5931;48.832;9.072;2023-04-25T10:17:24;1.77;;;1.30;;
11747;SDS011;5931;48.832;9.072;2023-04-25T10:19:55;1.77;;;1.30;;
11747;SDS011;5931;48.832;9.072;2023-04-25T10:22:37;3.00;;;1.87;;
11747;SDS011;5931;48.832;9.072;2023-04-25T10:25:07;3.00;;;2.23;;
11747;SDS011;5931;48.832;9.072;2023-04-25T10:27:34;2.53;;;1.97;;
11747;SDS011;5931;48.832;9.072;2023-04-25T10:30:04;3.67;;;2.30;;
11747;SDS011;5931;48.832;9.072;2023-04-25T10:32:35;3.23;;;1.73;;
11747;SDS011;5931;48.832;9.072;2023-04-25T10:38:00;5.17;;;3.13;;
11747;SDS011;5931;48.832;9.072;2023-04-25T10:40:25;6.23;;;3.47;;
11747;SDS011;5931;48.832;9.072;2023-04-25T10:42:55;4.50;;;3.30;;
11747;SDS011;5931;48.832;9.072;2023-04-25T10:45:21;6.63;;;3.13;;
11747;SDS011;5931;48.832;9.072;2023-04-25T10:47:47;4.90;;;3.70;;
11747;SDS011;5931;48.832;9.072;2023-04-25T10:50:16;6.07;;;3.30;;
11747;SDS011;5931;48.832;9.072;2023-04-25T10:52:42;4.60;;;3.70;;
11747;SDS011;5931;48.832;9.072;2023-04-25T10:55:09;5.00;;;3.00;;
11747;SDS011;5931;48.832;9.072;2023-04-25T11:02:37;2.10;;;1.70;;
11747;SDS011;5931;48.832;9.072;2023-04-25T11:05:08;3.40;;;2.33;;
11747;SDS011;5931;48.832;9.072;2023-04-25T11:07:53;2.60;;;2.40;;
11747;SDS011;5931;48.832;9.072;2023-04-25T11:10:28;3.00;;;2.57;;
11747;SDS011;5931;48.832;9.072;2023-04-25T11:12:56;4.60;;;3.30;;
11747;SDS011;5931;48.832;9.072;2023-04-25T11:15:22;3.73;;;2.43;;
11747;SDS011;5931;48.832;9.072;2023-04-25T11:17:50;3.70;;;2.10;;
11747;SDS011;5931;48.832;9.072;2023-04-25T11:20:17;3.37;;;1.90;;
11747;SDS011;5931;48.832;9.072;2023-04-25T11:22:44;2.27;;;1.90;;
11747;SDS011;5931;48.832;9.072;2023-04-25T11:25:11;2.30;;;1.87;;
11747;SDS011;5931;48.832;9.072;2023-04-25T11:27:54;2.30;;;1.73;;
11747;SDS011;5931;48.832;9.072;2023-04-25T11:30:24;7.10;;;2.30;;
11747;SDS011;5931;48.832;9.072;2023-04-25T11:32:51;3.37;;;2.40;;
11747;SDS011;5931;48.832;9.072;2023-04-25T11:35:17;3.70;;;2.80;;
11747;SDS011;5931;48.832;9.072;2023-04-25T11:37:44;3.17;;;2.37;;
11747;SDS011;5931;48.832;9.072;2023-04-25T11:40:10;4.33;;;2.83;;
11747;SDS011;5931;48.832;9.072;2023-04-25T11:42:37;5.33;;;3.10;;
11747;SDS011;5931;48.832;9.072;2023-04-25T11:45:12;3.37;;;2.83;;
11747;SDS011;5931;48.832;9.072;2023-04-25T11:47:38;5.23;;;3.07;;
11747;SDS011;5931;48.832;9.072;2023-04-25T11:50:05;3.63;;;2.03;;
11747;SDS011;5931;48.832;9.072;2023-04-25T11:52:42;2.97;;;2.57;;
11747;SDS011;5931;48.832;9.072;2023-04-25T11:55:10;4.83;;;2.80;;
11747;SDS011;5931;48.832;9.072;2023-04-25T11:57:38;3.63;;;2.80;;
11747;SDS011;5931;48.832;9.072;2023-04-25T12:02:45;5.13;;;2.83;;
11747;SDS011;5931;48.832;9.072;2023-04-25T12:05:13;4.47;;;3.40;;
11747;SDS011;5931;48.832;9.072;2023-04-25T12:07:43;6.20;;;3.67;;
11747;SDS011;5931;48.832;9.072;2023-04-25T12:10:10;11.43;;;4.80;;
11747;SDS011;5931;48.832;9.072;2023-04-25T12:12:38;7.90;;;3.97;;
11747;SDS011;5931;48.832;9.072;2023-04-25T12:15:10;6.93;;;4.37;;
11747;SDS011;5931;48.832;9.072;2023-04-25T12:17:44;7.33;;;4.23;;
11747;SDS011;5931;48.832;9.072;2023-04-25T12:20:14;6.53;;;3.83;;
11747;SDS011;5931;48.832;9.072;2023-04-25T12:22:42;8.77;;;3.93;;
11747;SDS011;5931;48.832;9.072;2023-04-25T12:28:13;10.60;;;4.10;;
11747;SDS011;5931;48.832;9.072;2023-04-25T12:31:00;6.40;;;3.33;;
11747;SDS011;5931;48.832;9.072;2023-04-25T12:33:30;5.63;;;3.00;;
11747;SDS011;5931;48.832;9.072;2023-04-25T12:36:06;6.37;;;4.17;;
11747;SDS011;5931;48.832;9.072;2023-04-25T12:38:41;5.47;;;3.97;;
11747;SDS011;5931;48.832;9.072;2023-04-25T12:41:07;9.00;;;3.83;;
11747;SDS011;5931;48.832;9.072;2023-04-25T12:43:33;4.00;;;3.00;;
11747;SDS011;5931;48.832;9.072;2023-04-25T12:46:00;6.80;;;4.90;;
11747;SDS011;5931;48.832;9.072;2023-04-25T12:48:26;6.23;;;3.13;;
11747;SDS011;5931;48.832;9.072;2023-04-25T12:50:52;5.07;;;3.27;;
11747;SDS011;5931;48.832;9.072;2023-04-25T12:53:18;5.50;;;3.63;;
11747;SDS011;5931;48.832;9.072;2023-04-25T12:55:45;5.60;;;3.20;;
11747;SDS011;5931;48.832;9.072;2023-04-25T12:58:15;8.10;;;3.97;;
11747;SDS011;5931;48.832;9.072;2023-04-25T13:00:42;5.10;;;3.27;;
11747;SDS011;5931;48.832;9.072;2023-04-25T13:03:08;4.40;;;3.13;;
11747;SDS011;5931;48.832;9.072;2023-04-25T13:05:35;8.33;;;4.37;;
11747;SDS011;5931;48.832;9.072;2023-04-25T13:08:01;7.73;;;3.67;;
11747;SDS011;5931;48.832;9.072;2023-04-25T13:10:27;6.57;;;3.80;;
11747;SDS011;5931;48.832;9.072;2023-04-25T13:12:53;8.07;;;4.70;;
11747;SDS011;5931;48.832;9.072;2023-04-25T13:15:19;5.20;;;3.87;;
11747;SDS011;5931;48.832;9.072;2023-04-25T13:17:44;5.47;;;3.70;;
11747;SDS011;5931;48.832;9.072;2023-04-25T13:20:10;7.30;;;5.07;;
11747;SDS011;5931;48.832;9.072;2023-04-25T13:22:39;5.73;;;4.60;;
11747;SDS011;5931;48.832;9.072;2023-04-25T13:25:06;6.10;;;4.40;;
11747;SDS011;5931;48.832;9.072;2023-04-25T13:27:33;31.57;;;12.20;;
11747;SDS011;5931;48.832;9.072;2023-04-25T13:30:00;11.67;;;6.93;;
11747;SDS011;5931;48.832;9.072;2023-04-25T13:32:29;11.93;;;6.23;;
11747;SDS011;5931;48.832;9.072;2023-04-25T13:34:55;9.83;;;6.50;;
11747;SDS011;5931;48.832;9.072;2023-04-25T13:37:21;10.00;;;5.47;;
11747;SDS011;5931;48.832;9.072;2023-04-25T13:39:49;8.83;;;5.60;;
11747;SDS011;5931;48.832;9.072;2023-04-25T13:42:15;10.50;;;5.90;;
11747;SDS011;5931;48.832;9.072;2023-04-25T13:44:41;7.70;;;3.87;;
11747;SDS011;5931;48.832;9.072;2023-04-25T13:47:06;10.90;;;5.00;;
11747;SDS011;5931;48.832;9.072;2023-04-25T13:49:32;6.37;;;4.83;;
11747;SDS011;5931;48.832;9.072;2023-04-25T13:51:57;7.33;;;5.17;;
11747;SDS011;5931;48.832;9.072;2023-04-25T13:54:23;6.63;;;4.63;;
11747;SDS011;5931;48.832;9.072;2023-04-25T13:56:49;8.03;;;4.73;;
11747;SDS011;5931;48.832;9.072;2023-04-25T13:59:15;5.67;;;3.50;;
11747;SDS011;5931;48.832;9.072;2023-04-25T14:01:41;5.57;;;3.90;;
11747;SDS011;5931;48.832;9.072;2023-04-25T14:04:06;6.13;;;4.40;;
11747;SDS011;5931;48.832;9.072;2023-04-25T14:06:32;4.63;;;3.60;;
11747;SDS011;5931;48.832;9.072;2023-04-25T14:08:58;7.37;;;4.73;;
11747;SDS011;5931;48.832;9.072;2023-04-25T14:11:26;5.00;;;3.73;;
11747;SDS011;5931;48.832;9.072;2023-04-25T14:13:51;5.70;;;3.93;;
11747;SDS011;5931;48.832;9.072;2023-04-25T14:16:17;8.50;;;4.20;;
11747;SDS011;5931;48.832;9.072;2023-04-25T14:18:43;5.70;;;4.10;;
11747;SDS011;5931;48.832;9.072;2023-04-25T14:21:08;5.87;;;4.20;;
11747;SDS011;5931;48.832;9.072;2023-04-25T14:23:34;7.40;;;4.60;;
11747;SDS011;5931;48.832;9.072;2023-04-25T14:26:00;4.33;;;3.83;;
11747;SDS011;5931;48.832;9.072;2023-04-25T14:28:26;5.40;;;3.93;;
11747;SDS011;5931;48.832;9.072;2023-04-25T14:30:52;3.87;;;3.20;;
11747;SDS011;5931;48.832;9.072;2023-04-25T14:33:18;7.80;;;4.23;;
11747;SDS011;5931;48.832;9.072;2023-04-25T14:35:43;6.07;;;4.20;;
11747;SDS011;5931;48.832;9.072;2023-04-25T14:38:09;4.53;;;3.43;;
11747;SDS011;5931;48.832;9.072;2023-04-25T14:40:35;7.73;;;4.20;;
11747;SDS011;5931;48.832;9.072;2023-04-25T14:43:00;9.77;;;5.33;;
11747;SDS011;5931;48.832;9.072;2023-04-25T14:45:26;6.50;;;3.90;;
11747;SDS011;5931;48.832;9.072;2023-04-25T14:47:51;10.53;;;6.20;;
11747;SDS011;5931;48.832;9.072;2023-04-25T14:50:17;9.33;;;5.63;;
11747;SDS011;5931;48.832;9.072;2023-04-25T14:52:43;5.30;;;3.27;;
11747;SDS011;5931;48.832;9.072;2023-04-25T14:55:10;5.93;;;3.50;;
11747;SDS011;5931;48.832;9.072;2023-04-25T14:57:36;5.47;;;3.50;;
11747;SDS011;5931;48.832;9.072;2023-04-25T15:00:02;3.20;;;2.60;;
11747;SDS011;5931;48.832;9.072;2023-04-25T15:02:30;3.87;;;3.13;;
11747;SDS011;5931;48.832;9.072;2023-04-25T15:04:56;4.60;;;3.37;;
11747;SDS011;5931;48.832;9.072;2023-04-25T15:07:22;5.13;;;3.47;;
11747;SDS011;5931;48.832;9.072;2023-04-25T15:09:47;4.70;;;3.00;;
11747;SDS011;5931;48.832;9.072;2023-04-25T15:12:13;4.37;;;3.30;;
11747;SDS011;5931;48.832;9.072;2023-04-25T15:14:39;3.87;;;3.13;;
11747;SDS011;5931;48.832;9.072;2023-04-25T15:17:05;9.83;;;3.33;;
11747;SDS011;5931;48.832;9.072;2023-04-25T15:19:31;5.13;;;2.80;;
11747;SDS011;5931;48.832;9.072;2023-04-25T15:21:57;4.20;;;3.43;;
11747;SDS011;5931;48.832;9.072;2023-04-25T15:24:26;3.90;;;3.30;;
11747;SDS011;5931;48.832;9.072;2023-04-25T15:26:52;4.40;;;3.87;;